createdAt,value
2019-05-16T00:02:01.988Z,99.90
2019-05-16T00:04:31.481Z,99.90
2019-05-16T00:07:01.125Z,99.90
2019-05-16T00:09:30.680Z,99.90
2019-05-16T00:12:03.105Z,99.90
2019-05-16T00:14:32.592Z,99.90
2019-05-16T00:17:02.109Z,99.90
2019-05-16T00:19:31.416Z,99.90
2019-05-16T00:22:00.902Z,99.90
2019-05-16T00:24:30.375Z,99.90
2019-05-16T00:26:59.828Z,99.90
2019-05-16T00:29:29.330Z,99.90
2019-05-16T00:32:00.157Z,99.90
2019-05-16T00:34:31.128Z,99.90
2019-05-16T00:37:00.600Z,99.90
2019-05-16T00:39:30.450Z,99.90
2019-05-16T00:41:59.905Z,99.90
2019-05-16T00:44:29.364Z,99.90
2019-05-16T00:46:59.545Z,99.90
2019-05-16T00:49:29.007Z,99.90
2019-05-16T00:51:58.591Z,99.90
2019-05-16T00:54:28.121Z,99.90
2019-05-16T00:56:59.008Z,99.90
2019-05-16T00:59:29.571Z,99.90
2019-05-16T01:01:59.092Z,99.90
2019-05-16T01:04:28.857Z,99.90
2019-05-16T01:07:01.803Z,99.90
2019-05-16T01:09:29.704Z,99.90
2019-05-16T01:11:59.193Z,99.90
2019-05-16T01:14:28.641Z,99.90
2019-05-16T01:16:58.287Z,99.90
2019-05-16T01:19:27.941Z,99.90
2019-05-16T01:21:58.983Z,99.90
2019-05-16T01:24:29.328Z,99.90
2019-05-16T01:26:58.839Z,99.90
2019-05-16T01:29:47.826Z,99.90
2019-05-16T01:32:18.988Z,99.90
2019-05-16T01:34:48.643Z,99.90
2019-05-16T01:37:18.601Z,99.90
2019-05-16T01:39:48.474Z,99.90
2019-05-16T01:42:18.487Z,99.90
2019-05-16T01:44:48.725Z,99.90
2019-05-16T01:47:18.467Z,99.90
2019-05-16T01:49:48.760Z,99.90
2019-05-16T01:52:18.500Z,99.90
2019-05-16T01:54:48.182Z,99.90
2019-05-16T01:57:19.314Z,99.90
2019-05-16T01:59:48.817Z,99.90
2019-05-16T02:02:18.704Z,99.90
2019-05-16T02:04:48.618Z,99.90
2019-05-16T02:07:18.746Z,99.90
2019-05-16T02:09:48.639Z,99.90
2019-05-16T02:12:18.568Z,99.90
2019-05-16T02:14:48.228Z,99.90
2019-05-16T02:17:18.335Z,99.90
2019-05-16T02:19:48.639Z,99.90
2019-05-16T02:22:18.393Z,99.90
2019-05-16T02:24:48.080Z,99.90
2019-05-16T02:27:18.214Z,99.90
2019-05-16T02:29:48.113Z,99.90
2019-05-16T02:32:17.606Z,99.90
2019-05-16T02:35:01.143Z,99.90
2019-05-16T02:37:34.403Z,99.90
2019-05-16T02:40:01.915Z,99.90
2019-05-16T02:42:31.518Z,99.90
2019-05-16T02:45:02.306Z,99.90
2019-05-16T02:47:34.994Z,99.90
2019-05-16T02:50:04.992Z,99.90
2019-05-16T02:52:34.471Z,99.90
2019-05-16T02:55:04.699Z,99.90
2019-05-16T02:57:53.490Z,99.90
2019-05-16T03:00:27.487Z,99.90
2019-05-16T03:02:57.037Z,99.90
2019-05-16T03:05:30.407Z,99.90
2019-05-16T03:08:01.286Z,99.90
2019-05-16T03:10:31.960Z,99.90
2019-05-16T03:13:01.706Z,99.90
2019-05-16T03:15:31.413Z,99.90
2019-05-16T03:18:04.387Z,99.90
2019-05-16T03:20:34.809Z,99.90
2019-05-16T03:23:04.354Z,99.90
2019-05-16T03:25:33.895Z,99.90
2019-05-16T03:28:03.419Z,99.90
2019-05-16T03:30:35.197Z,99.90
2019-05-16T03:33:05.829Z,99.90
2019-05-16T03:35:35.832Z,99.90
2019-05-16T03:38:06.004Z,99.90
2019-05-16T03:40:37.520Z,99.90
2019-05-16T03:43:07.041Z,99.90
2019-05-16T03:45:36.612Z,99.90
2019-05-16T03:48:06.069Z,99.90
2019-05-16T03:50:35.581Z,99.90
2019-05-16T03:53:05.059Z,99.90
2019-05-16T03:55:34.528Z,99.90
2019-05-16T03:58:04.332Z,99.90
2019-05-16T04:00:45.278Z,99.90
2019-05-16T04:03:11.593Z,99.90
2019-05-16T04:05:41.427Z,99.90
2019-05-16T04:08:18.945Z,99.90
2019-05-16T04:10:43.943Z,99.90
2019-05-16T04:13:16.280Z,99.90
2019-05-16T04:15:45.918Z,99.90
2019-05-16T04:18:15.420Z,99.90
2019-05-16T04:20:44.877Z,99.90
2019-05-16T04:23:14.331Z,99.90
2019-05-16T04:25:43.906Z,99.90
2019-05-16T04:28:13.350Z,99.90
2019-05-16T04:30:42.891Z,99.90
2019-05-16T04:33:12.406Z,99.90
2019-05-16T04:35:41.886Z,99.90
2019-05-16T04:38:21.937Z,99.90
2019-05-16T04:40:42.585Z,99.90
2019-05-16T04:43:12.057Z,99.90
2019-05-16T04:45:41.623Z,99.90
2019-05-16T04:48:11.408Z,99.90
2019-05-16T04:50:41.929Z,99.90
2019-05-16T04:53:11.593Z,99.90
2019-05-16T04:55:42.028Z,99.90
2019-05-16T04:58:11.822Z,99.90
2019-05-16T05:00:42.097Z,99.90
2019-05-16T05:03:11.981Z,99.90
2019-05-16T05:05:41.585Z,99.90
2019-05-16T05:08:11.980Z,99.90
2019-05-16T05:10:41.750Z,99.90
2019-05-16T05:13:11.251Z,99.90
2019-05-16T05:15:40.729Z,99.90
2019-05-16T05:18:10.341Z,99.90
2019-05-16T05:20:41.016Z,99.90
2019-05-16T05:23:10.678Z,99.90
2019-05-16T05:25:40.499Z,99.90
2019-05-16T05:28:13.203Z,99.90
2019-05-16T05:30:41.313Z,99.90
2019-05-16T05:33:11.085Z,99.90
2019-05-16T05:35:40.910Z,99.90
2019-05-16T05:38:11.372Z,99.90
2019-05-16T05:40:41.007Z,99.90
2019-05-16T05:43:10.735Z,99.90
2019-05-16T05:45:40.383Z,99.90
2019-05-16T05:48:10.709Z,99.90
2019-05-16T05:50:40.292Z,99.90
2019-05-16T05:53:10.196Z,99.90
2019-05-16T05:55:40.469Z,99.90
2019-05-16T05:58:10.199Z,99.90
2019-05-16T06:00:40.540Z,99.90
2019-05-16T06:03:10.697Z,99.90
2019-05-16T06:05:41.276Z,99.90
2019-05-16T06:08:10.965Z,99.90
2019-05-16T06:10:40.623Z,99.90
2019-05-16T06:13:11.083Z,99.90
2019-05-16T06:15:40.679Z,99.90
2019-05-16T06:18:10.874Z,99.90
2019-05-16T06:20:40.538Z,99.90
2019-05-16T06:23:10.615Z,99.90
2019-05-16T06:25:40.615Z,99.90
2019-05-16T06:28:10.564Z,99.90
2019-05-16T06:30:40.811Z,99.90
2019-05-16T06:33:30.629Z,99.90
2019-05-16T06:36:01.019Z,99.90
2019-05-16T06:38:30.755Z,99.90
2019-05-16T06:41:00.679Z,99.90
2019-05-16T06:43:30.419Z,99.90
2019-05-16T06:46:00.709Z,99.90
2019-05-16T06:48:30.642Z,99.90
2019-05-16T06:51:02.890Z,99.90
2019-05-16T06:53:31.481Z,99.90
2019-05-16T06:56:01.020Z,99.90
2019-05-16T06:58:30.556Z,99.90
2019-05-16T07:01:03.458Z,99.90
2019-05-16T07:03:31.512Z,99.90
2019-05-16T07:06:01.250Z,99.90
2019-05-16T07:08:31.270Z,99.90
2019-05-16T07:11:01.130Z,99.90
2019-05-16T07:13:30.800Z,99.90
2019-05-16T07:16:00.684Z,99.90
2019-05-16T07:18:31.033Z,99.90
2019-05-16T07:21:00.942Z,99.90
2019-05-16T07:23:30.415Z,99.90
2019-05-16T07:26:00.825Z,99.90
2019-05-16T07:28:30.717Z,96.60
2019-05-16T07:31:06.540Z,91.60
2019-05-16T07:33:31.522Z,96.30
2019-05-16T07:36:01.076Z,93.10
2019-05-16T07:38:31.314Z,86.80
2019-05-16T07:41:01.099Z,82.50
2019-05-16T07:43:31.076Z,66.40
2019-05-16T07:46:00.810Z,58.40
2019-05-16T07:48:31.688Z,52.00
2019-05-16T07:51:01.499Z,53.60
2019-05-16T07:53:33.228Z,58.60
2019-05-16T07:56:02.448Z,62.50
2019-05-16T07:58:32.012Z,62.70
2019-05-16T08:01:07.381Z,60.10
2019-05-16T08:03:33.291Z,59.70
2019-05-16T08:06:02.929Z,57.40
2019-05-16T08:08:32.606Z,58.80
2019-05-16T08:11:02.106Z,57.00
2019-05-16T08:13:50.984Z,55.40
2019-05-16T08:16:20.937Z,57.40
2019-05-16T08:18:50.944Z,56.10
2019-05-16T08:21:20.745Z,51.50
2019-05-16T08:23:50.724Z,51.70
2019-05-16T08:26:22.065Z,52.50
2019-05-16T08:28:51.708Z,51.60
2019-05-16T08:31:21.683Z,52.20
2019-05-16T08:33:53.590Z,55.60
2019-05-16T08:36:22.850Z,55.80
2019-05-16T08:38:52.460Z,54.70
2019-05-16T08:41:22.384Z,53.60
2019-05-16T08:43:53.290Z,51.20
2019-05-16T08:46:23.139Z,49.20
2019-05-16T08:48:54.220Z,49.10
2019-05-16T08:51:24.287Z,49.50
2019-05-16T08:53:54.120Z,51.00
2019-05-16T08:56:23.579Z,50.50
2019-05-16T08:58:55.768Z,49.80
2019-05-16T09:01:25.250Z,50.10
2019-05-16T09:03:54.755Z,49.00
2019-05-16T09:06:24.312Z,49.90
2019-05-16T09:08:57.717Z,47.10
2019-05-16T09:11:38.917Z,44.50
2019-05-16T09:13:57.358Z,45.90
2019-05-16T09:16:27.624Z,46.10
2019-05-16T09:18:57.724Z,46.90
2019-05-16T09:21:27.738Z,47.70
2019-05-16T09:23:57.918Z,45.90
2019-05-16T09:26:28.106Z,44.90
2019-05-16T09:28:57.595Z,41.00
2019-05-16T09:31:27.607Z,39.90
2019-05-16T09:33:57.145Z,37.40
2019-05-16T09:36:34.752Z,35.20
2019-05-16T09:38:58.209Z,37.90
2019-05-16T09:41:46.394Z,40.60
2019-05-16T09:43:59.566Z,43.20
2019-05-16T09:46:37.574Z,43.90
2019-05-16T09:49:16.943Z,40.90
2019-05-16T09:51:38.429Z,37.60
2019-05-16T09:54:08.124Z,34.30
2019-05-16T09:56:37.745Z,36.80
2019-05-16T09:59:07.334Z,41.30
2019-05-16T10:01:37.202Z,42.10
2019-05-16T10:04:06.946Z,40.50
2019-05-16T10:06:37.121Z,42.20
2019-05-16T10:09:08.508Z,40.70
2019-05-16T10:11:41.833Z,38.30
2019-05-16T10:14:09.724Z,40.00
2019-05-16T10:16:39.628Z,41.60
2019-05-16T10:19:16.907Z,41.20
2019-05-16T10:21:46.106Z,39.40
2019-05-16T10:24:15.824Z,40.50
2019-05-16T10:26:47.272Z,40.80
2019-05-16T10:29:18.275Z,41.60
2019-05-16T10:31:52.592Z,41.00
2019-05-16T10:34:18.972Z,42.20
2019-05-16T10:36:50.088Z,41.20
2019-05-16T10:39:20.283Z,39.00
2019-05-16T10:41:49.774Z,40.30
2019-05-16T10:44:19.258Z,39.00
2019-05-16T10:46:48.766Z,35.50
2019-05-16T10:49:33.398Z,33.40
2019-05-16T10:51:50.612Z,37.30
2019-05-16T10:54:22.888Z,37.30
2019-05-16T10:56:52.438Z,35.50
2019-05-16T11:01:53.838Z,39.20
2019-05-16T11:04:29.260Z,39.70
2019-05-16T11:06:54.611Z,43.50
2019-05-16T11:09:24.175Z,42.10
2019-05-16T11:11:53.712Z,43.20
2019-05-16T11:14:42.559Z,42.80
2019-05-16T11:17:13.690Z,40.60
2019-05-16T11:19:43.271Z,42.00
2019-05-16T11:22:12.935Z,41.60
2019-05-16T11:24:42.562Z,40.40
2019-05-16T11:27:12.104Z,40.40
2019-05-16T11:29:41.618Z,39.50
2019-05-16T11:32:11.201Z,39.70
2019-05-16T11:34:41.268Z,39.70
2019-05-16T11:37:10.752Z,42.00
2019-05-16T11:39:40.327Z,43.30
2019-05-16T11:42:09.989Z,43.90
2019-05-16T11:44:39.613Z,43.50
2019-05-16T11:47:09.116Z,44.70
2019-05-16T11:49:38.605Z,45.00
2019-05-16T11:52:08.188Z,44.00
2019-05-16T11:54:37.747Z,42.50
2019-05-16T11:57:07.379Z,42.90
2019-05-16T11:59:37.483Z,43.90
2019-05-16T12:02:27.922Z,42.20
2019-05-16T12:04:57.947Z,40.90
2019-05-16T12:07:34.107Z,38.80
2019-05-16T12:09:58.685Z,38.20
2019-05-16T12:12:28.173Z,38.10
2019-05-16T12:14:58.446Z,37.50
2019-05-16T12:17:28.244Z,37.30
2019-05-16T12:19:57.816Z,40.10
2019-05-16T12:22:27.543Z,41.10
2019-05-16T12:24:57.514Z,41.80
2019-05-16T12:27:32.593Z,40.70
2019-05-16T12:29:59.133Z,40.00
2019-05-16T12:32:28.981Z,39.50
2019-05-16T12:34:58.504Z,38.70
2019-05-16T12:37:27.993Z,41.20
2019-05-16T12:39:57.524Z,40.50
2019-05-16T12:42:27.312Z,39.30
2019-05-16T12:44:56.944Z,39.90
2019-05-16T12:47:26.511Z,39.50
2019-05-16T12:49:56.641Z,37.10
2019-05-16T12:52:27.150Z,39.20
2019-05-16T12:54:57.090Z,40.40
2019-05-16T12:57:30.914Z,39.30
2019-05-16T12:59:58.342Z,38.70
2019-05-16T13:02:47.509Z,37.80
2019-05-16T13:05:18.026Z,36.30
2019-05-16T13:07:47.886Z,34.40
2019-05-16T13:10:18.484Z,34.90
2019-05-16T13:12:47.981Z,36.70
2019-05-16T13:15:18.417Z,38.40
2019-05-16T13:17:48.137Z,39.40
2019-05-16T13:20:18.441Z,40.50
2019-05-16T13:22:48.034Z,39.70
2019-05-16T13:25:18.654Z,39.80
2019-05-16T13:27:48.115Z,40.90
2019-05-16T13:30:18.690Z,40.30
2019-05-16T13:32:48.234Z,41.30
2019-05-16T13:35:18.133Z,40.30
2019-05-16T13:37:47.986Z,39.00
2019-05-16T13:40:19.229Z,40.60
2019-05-16T13:42:48.880Z,39.90
2019-05-16T13:45:18.753Z,40.80
2019-05-16T13:47:49.264Z,41.40
2019-05-16T13:50:19.358Z,43.30
2019-05-16T13:52:48.845Z,43.80
2019-05-16T13:55:27.092Z,41.90
2019-05-16T13:57:56.275Z,40.30
2019-05-16T14:00:27.942Z,42.00
2019-05-16T14:02:57.225Z,41.80
2019-05-16T14:05:26.912Z,41.00
2019-05-16T14:07:57.209Z,42.90
2019-05-16T14:10:29.742Z,42.80
2019-05-16T14:12:58.283Z,43.40
2019-05-16T14:15:27.844Z,43.00
2019-05-16T14:17:57.314Z,42.50
2019-05-16T14:20:26.946Z,41.80
2019-05-16T14:22:57.313Z,41.30
2019-05-16T14:25:27.042Z,42.30
2019-05-16T14:27:56.860Z,42.60
2019-05-16T14:30:28.511Z,45.20
2019-05-16T14:33:01.580Z,46.10
2019-05-16T14:35:29.143Z,46.20
2019-05-16T14:38:00.868Z,45.10
2019-05-16T14:40:30.170Z,46.90
2019-05-16T14:42:59.939Z,47.20
2019-05-16T14:45:29.746Z,48.20
2019-05-16T14:47:59.242Z,46.50
2019-05-16T14:50:28.722Z,49.00
2019-05-16T14:52:58.183Z,51.10
2019-05-16T14:55:33.491Z,50.90
2019-05-16T14:58:02.979Z,51.40
2019-05-16T15:00:32.620Z,51.00
2019-05-16T15:03:02.453Z,51.00
2019-05-16T15:05:31.923Z,54.20
2019-05-16T15:08:01.468Z,53.10
2019-05-16T15:10:30.945Z,53.20
2019-05-16T15:13:00.469Z,53.40
2019-05-16T15:15:30.097Z,54.60
2019-05-16T15:17:59.592Z,55.30
2019-05-16T15:20:29.134Z,56.90
2019-05-16T15:22:58.603Z,54.80
2019-05-16T15:25:28.106Z,54.90
2019-05-16T15:28:00.381Z,53.30
2019-05-16T15:30:28.857Z,52.00
2019-05-16T15:32:58.338Z,52.10
2019-05-16T15:35:30.468Z,52.40
2019-05-16T15:37:59.216Z,53.00
2019-05-16T15:40:28.748Z,55.60
2019-05-16T15:42:59.094Z,56.00
2019-05-16T15:45:39.383Z,57.00
2019-05-16T15:48:08.270Z,58.40
2019-05-16T15:50:37.231Z,60.20
2019-05-16T15:53:08.007Z,62.20
2019-05-16T15:55:39.215Z,60.50
2019-05-16T15:58:10.473Z,64.20
2019-05-16T16:00:47.461Z,66.00
2019-05-16T16:03:17.749Z,67.50
2019-05-16T16:05:47.331Z,65.30
2019-05-16T16:08:18.131Z,65.80
2019-05-16T16:10:49.703Z,66.00
2019-05-16T16:13:20.084Z,71.70
2019-05-16T16:15:54.116Z,78.40
2019-05-16T16:18:21.944Z,78.60
2019-05-16T16:20:51.743Z,81.40
2019-05-16T16:23:21.381Z,83.00
2019-05-16T16:25:51.698Z,84.30
2019-05-16T16:28:21.647Z,85.60
2019-05-16T16:31:10.496Z,87.80
2019-05-16T16:33:39.991Z,88.10
2019-05-16T16:36:09.553Z,85.50
2019-05-16T16:38:39.053Z,84.20
2019-05-16T16:41:08.600Z,83.00
2019-05-16T16:43:38.059Z,87.10
2019-05-16T16:46:13.445Z,89.70
2019-05-16T16:48:40.468Z,91.80
2019-05-16T16:51:09.819Z,91.00
2019-05-16T16:53:39.381Z,90.90
2019-05-16T16:56:08.885Z,90.10
2019-05-16T16:58:38.376Z,88.90
2019-05-16T17:01:08.016Z,89.40
2019-05-16T17:03:38.047Z,86.50
2019-05-16T17:06:07.695Z,88.10
2019-05-16T17:08:37.664Z,89.90
2019-05-16T17:11:07.819Z,92.50
2019-05-16T17:13:37.390Z,93.40
2019-05-16T17:16:21.193Z,93.80
2019-05-16T17:18:38.232Z,92.90
2019-05-16T17:21:08.224Z,92.40
2019-05-16T17:23:37.890Z,93.30
2019-05-16T17:26:07.682Z,95.50
2019-05-16T17:28:37.615Z,96.10
2019-05-16T17:31:07.512Z,98.20
2019-05-16T17:33:38.254Z,99.90
2019-05-16T17:36:09.375Z,99.90
2019-05-16T17:38:39.776Z,99.90
2019-05-16T17:41:09.332Z,99.90
2019-05-16T17:43:38.851Z,99.90
2019-05-16T17:46:08.455Z,99.90
2019-05-16T17:48:38.363Z,99.90
2019-05-16T17:51:08.017Z,99.90
2019-05-16T17:53:37.605Z,99.90
2019-05-16T17:56:07.567Z,99.90
2019-05-16T17:58:37.062Z,99.90
2019-05-16T18:01:08.667Z,99.90
2019-05-16T18:03:38.240Z,99.90
2019-05-16T18:06:08.044Z,99.90
2019-05-16T18:08:37.809Z,99.90
2019-05-16T18:11:07.525Z,99.90
2019-05-16T18:13:37.388Z,99.90
2019-05-16T18:16:07.671Z,99.90
2019-05-16T18:18:37.894Z,99.90
2019-05-16T18:21:07.701Z,99.90
2019-05-16T18:23:37.417Z,99.90
2019-05-16T18:26:07.991Z,99.90
2019-05-16T18:28:37.574Z,99.90
2019-05-16T18:31:07.430Z,99.90
2019-05-16T18:33:37.325Z,99.90
2019-05-16T18:36:07.733Z,99.90
2019-05-16T18:38:37.594Z,99.90
2019-05-16T18:41:08.018Z,99.90
2019-05-16T18:43:37.605Z,99.90
2019-05-16T18:46:08.109Z,99.90
2019-05-16T18:48:37.629Z,99.90
2019-05-16T18:51:07.093Z,99.90
2019-05-16T18:53:37.487Z,99.90
2019-05-16T18:56:07.891Z,99.90
2019-05-16T18:58:37.546Z,99.90
2019-05-16T19:01:07.157Z,99.90
2019-05-16T19:03:36.731Z,99.90
2019-05-16T19:06:07.751Z,99.90
2019-05-16T19:08:37.539Z,99.90
2019-05-16T19:11:07.642Z,99.90
2019-05-16T19:13:37.254Z,99.90
2019-05-16T19:16:06.911Z,99.90
2019-05-16T19:18:36.998Z,99.90
2019-05-16T19:21:07.537Z,99.90
2019-05-16T19:23:40.315Z,99.90
2019-05-16T19:26:09.773Z,99.90
2019-05-16T19:28:39.302Z,99.90
2019-05-16T19:31:09.033Z,99.90
2019-05-16T19:33:38.503Z,99.90
2019-05-16T19:36:09.720Z,99.90
2019-05-16T19:38:39.214Z,99.90
2019-05-16T19:41:09.187Z,99.90
2019-05-16T19:43:38.952Z,99.90
2019-05-16T19:46:08.496Z,99.90
2019-05-16T19:48:37.962Z,99.90
2019-05-16T19:51:07.692Z,99.90
2019-05-16T19:53:37.406Z,99.90
2019-05-16T19:56:07.406Z,99.90
2019-05-16T19:58:37.461Z,99.90
2019-05-16T20:01:07.231Z,99.90
2019-05-16T20:03:36.797Z,99.90
2019-05-16T20:06:07.582Z,99.90
2019-05-16T20:08:37.528Z,99.90
2019-05-16T20:11:27.640Z,99.90
2019-05-16T20:13:57.526Z,99.90
2019-05-16T20:16:27.474Z,99.90
2019-05-16T20:18:57.056Z,99.90
2019-05-16T20:21:27.514Z,99.90
2019-05-16T20:23:57.372Z,99.90
2019-05-16T20:26:28.472Z,99.90
2019-05-16T20:28:59.588Z,99.90
2019-05-16T20:31:48.475Z,99.90
2019-05-16T20:34:17.980Z,99.90
2019-05-16T20:36:47.628Z,99.90
2019-05-16T20:39:17.365Z,99.90
2019-05-16T20:41:48.530Z,99.90
2019-05-16T20:44:19.061Z,99.90
2019-05-16T20:46:49.718Z,99.90
2019-05-16T20:49:19.484Z,99.90
2019-05-16T20:51:50.079Z,99.90
2019-05-16T20:54:19.856Z,99.90
2019-05-16T20:56:49.728Z,99.90
2019-05-16T20:59:19.397Z,99.90
2019-05-16T21:01:50.373Z,99.90
2019-05-16T21:04:20.223Z,99.90
2019-05-16T21:07:00.319Z,99.90
2019-05-16T21:09:21.038Z,99.90
2019-05-16T21:11:50.578Z,99.90
2019-05-16T21:14:20.088Z,99.90
2019-05-16T21:16:49.774Z,99.90
2019-05-16T21:19:19.277Z,99.90
2019-05-16T21:21:49.339Z,99.90
2019-05-16T21:24:18.888Z,99.90
2019-05-16T21:26:48.400Z,99.90
2019-05-16T21:29:19.625Z,99.90
2019-05-16T21:31:49.127Z,99.90
2019-05-16T21:34:19.233Z,99.90
2019-05-16T21:36:48.840Z,99.90
2019-05-16T21:39:18.348Z,99.90
2019-05-16T21:41:47.920Z,99.90
2019-05-16T21:44:17.443Z,99.90
2019-05-16T21:46:47.706Z,99.90
2019-05-16T21:49:19.646Z,99.90
2019-05-16T21:51:48.535Z,99.90
2019-05-16T21:54:18.013Z,99.90
2019-05-16T21:56:47.531Z,99.90
2019-05-16T21:59:17.101Z,99.90
2019-05-16T22:01:48.666Z,99.90
2019-05-16T22:04:18.415Z,99.90
2019-05-16T22:06:49.475Z,99.90
2019-05-16T22:09:26.609Z,99.90
2019-05-16T22:11:57.737Z,99.90
2019-05-16T22:14:31.795Z,99.90
2019-05-16T22:17:01.271Z,99.90
2019-05-16T22:19:50.258Z,99.90
2019-05-16T22:22:19.868Z,99.90
2019-05-16T22:24:49.476Z,99.90
2019-05-16T22:27:18.899Z,99.90
2019-05-16T22:29:48.458Z,99.90
2019-05-16T22:32:18.185Z,99.90
2019-05-16T22:34:47.805Z,99.90
2019-05-16T22:37:17.402Z,99.90
2019-05-16T22:39:46.932Z,99.90
2019-05-16T22:42:37.438Z,99.90
2019-05-16T22:45:10.953Z,99.90
2019-05-16T22:47:42.111Z,99.90
2019-05-16T22:50:13.739Z,99.90
2019-05-16T22:52:43.199Z,99.90
2019-05-16T22:55:14.112Z,99.90
2019-05-16T22:57:43.589Z,99.90
2019-05-16T23:00:16.914Z,99.90
2019-05-16T23:02:46.492Z,99.90
2019-05-16T23:05:16.826Z,99.90
2019-05-16T23:07:48.516Z,99.90
2019-05-16T23:10:18.249Z,99.90
2019-05-16T23:12:47.732Z,99.90
2019-05-16T23:15:18.167Z,99.90
2019-05-16T23:17:47.766Z,99.90
2019-05-16T23:20:17.562Z,99.90
2019-05-16T23:22:47.148Z,99.90
2019-05-16T23:25:17.274Z,99.90
2019-05-16T23:27:47.421Z,99.90
2019-05-16T23:30:18.167Z,99.90
2019-05-16T23:33:07.426Z,99.90
2019-05-16T23:35:37.825Z,99.90
2019-05-16T23:38:18.606Z,99.90
2019-05-16T23:40:38.688Z,99.90
2019-05-16T23:43:08.169Z,99.90
2019-05-16T23:45:37.819Z,99.90
2019-05-16T23:48:10.532Z,99.90
2019-05-16T23:50:40.561Z,99.90
2019-05-16T23:53:29.345Z,99.90
2019-05-16T23:55:58.796Z,99.90
2019-05-16T23:58:28.152Z,99.90
